KGHW

Details ICAO KGHW
Name GLENWOOD MUNI
Region United States
Timezone America/Chicago (UTC-6.0)
Plans Departing 0
Arriving 3
Stats Elevation 1,393 ft / 425 m (AMSL)
Location 45.644381° -95.320487°
Runways 2
Magnetic Variation 1.824° E
Sunrise 2017-12-17 13:58:03 UTC / 2017-12-17 07:58:03 Local
Sunset 2017-12-17 22:39:44 UTC / 2017-12-17 16:39:44 Local
Advertisement - Login to hide

Runways

ID Width Length Bearing (true) Bearing (mag) Surface Threshold Offset Overrun Length
05 209 ft / 64 m 2,789 ft / 850 m 56.97° 55.15° Grass 0 ft / 0 m 0 ft / 0 m
15 75 ft / 23 m 4,502 ft / 1,372 m 162.21° 160.39° Asphalt 0 ft / 0 m 0 ft / 0 m
23 209 ft / 64 m 2,789 ft / 850 m 236.98° 235.16° Grass 0 ft / 0 m 0 ft / 0 m
33 75 ft / 23 m 4,502 ft / 1,372 m 342.21° 340.39° Asphalt 0 ft / 0 m 0 ft / 0 m

Map

Weather


0- 5 10 15 20 25 30 35+ Temperature / ° C

Clouds and Precipitation
Forecast for 2017-12-17 12:00 UTC. Updated 2 hours ago

Ground ~20,000 ft ~40,000 ft Winds

METAR

KGHW 170835Z AUTO 00000KT 1SM BR OVC002 M03/M03 A3007 RMK AO2

TAF

Not found

Frequencies

Unicom 122.90 MHz CTAF
Warning: Do not use this data for real-world aviation or navigation. No guarantee of current accuracy is given.